Time;durP1;ratioP1;P1;durP2;ratioP2;P2;SDS_P1;SDS_P2;PMS_P1;PMS_P2;Temp;Humidity;BMP_temperature;BMP_pressure;BME280_temperature;BME280_humidity;BME280_pressure;Samples;Min_cycle;Max_cycle;Signal;HPM_P1;HPM_P2
2021/12/21 00:00:51;;;;;;;;;5.75;5.75;;;;;17.51;57.23;102904.16;5073170;28;9534;-64
2021/12/21 00:03:19;;;;;;;;;4.50;4.00;;;;;17.53;57.30;102910.38;5073093;28;8775;-65
2021/12/21 00:05:47;;;;;;;;;5.00;4.00;;;;;17.45;57.34;102893.44;5072484;28;9626;-65
2021/12/21 00:08:13;;;;;;;;;6.00;5.00;;;;;17.51;57.11;102909.44;5073232;28;9453;-66
2021/12/21 00:10:43;;;;;;;;;6.00;5.33;;;;;17.51;57.22;102908.56;5073296;28;9259;-65
2021/12/21 00:13:22;;;;;;;;;4.33;4.33;;;;;17.51;57.45;102909.44;5072680;28;9341;-65
2021/12/21 00:16:13;;;;;;;;;5.00;5.00;;;;;17.52;57.54;102913.88;5073007;28;10105;-65
2021/12/21 00:21:42;;;;;;;;;4.50;4.50;;;;;17.52;57.26;102916.53;5071992;28;9360;-64
2021/12/21 00:24:19;;;;;;;;;4.67;4.67;;;;;17.51;57.35;102913.84;5072906;28;9402;-64
2021/12/21 00:26:44;;;;;;;;;3.67;3.67;;;;;17.51;57.53;102911.22;5072401;28;10485;-64
2021/12/21 00:29:10;;;;;;;;;4.67;4.00;;;;;17.48;57.31;102905.81;5072582;28;9359;-64
2021/12/21 00:31:37;;;;;;;;;3.00;3.00;;;;;17.48;57.47;102903.19;5073181;28;8790;-64
2021/12/21 00:34:05;;;;;;;;;4.00;4.00;;;;;17.45;57.12;102893.44;5071986;28;8785;-65
2021/12/21 00:36:31;;;;;;;;;4.33;4.33;;;;;17.49;57.22;102897.06;5072642;28;9284;-65
2021/12/21 00:39:00;;;;;;;;;4.67;4.00;;;;;17.46;57.32;102889.06;5072657;28;9422;-65
2021/12/21 00:41:26;;;;;;;;;5.00;5.00;;;;;17.47;57.00;102889.09;5072343;28;8817;-65
2021/12/21 00:43:52;;;;;;;;;7.00;6.00;;;;;17.49;57.33;102895.31;5072406;28;9259;-64
2021/12/21 00:46:17;;;;;;;;;5.75;5.75;;;;;17.48;57.47;102885.59;5072961;28;8759;-65
2021/12/21 00:48:55;;;;;;;;;7.00;5.00;;;;;17.50;57.49;102891.84;5071605;28;8880;-66
2021/12/21 00:51:24;;;;;;;;;4.00;4.00;;;;;17.48;57.43;102885.59;5073002;28;8785;-65
2021/12/21 00:53:49;;;;;;;;;4.00;4.00;;;;;17.50;57.32;102880.38;5072378;28;9204;-66
2021/12/21 00:56:18;;;;;;;;;3.67;3.67;;;;;17.44;57.00;102874.91;5071654;28;9344;-66
2021/12/21 00:58:46;;;;;;;;;5.00;5.00;;;;;17.43;57.16;102881.06;5072390;28;8780;-65
2021/12/21 01:01:11;;;;;;;;;4.25;4.25;;;;;17.47;57.31;102890.84;5072208;28;10110;-65
2021/12/21 01:03:49;;;;;;;;;6.75;4.75;;;;;17.44;57.26;102881.09;5071461;28;9319;-65
2021/12/21 01:06:25;;;;;;;;;4.00;4.00;;;;;17.44;57.14;102872.28;5072513;28;8796;-65
2021/12/21 01:11:24;;;;;;;;;5.00;5.00;;;;;17.44;57.28;102870.53;5072251;28;9405;-65
2021/12/21 01:14:00;;;;;;;;;2.00;2.00;;;;;17.46;56.99;102874.13;5071123;28;9419;-65
2021/12/21 01:16:48;;;;;;;;;3.00;3.00;;;;;17.44;57.04;102885.47;5071443;28;9401;-66
2021/12/21 01:19:28;;;;;;;;;4.33;4.33;;;;;17.43;57.34;102862.59;5071690;28;9269;-65
2021/12/21 01:22:10;;;;;;;;;8.33;5.00;;;;;17.42;57.24;102863.44;5071596;28;9436;-64
2021/12/21 01:32:36;;;;;;;;;3.25;3.25;;;;;17.40;57.05;102855.47;5071935;28;8854;-66
2021/12/21 01:35:07;;;;;;;;;5.00;4.00;;;;;17.29;57.34;102841.97;5070336;28;9500;-65
2021/12/21 01:43:22;;;;;;;;;4.25;4.25;;;;;17.37;57.26;102851.00;5023631;28;9416;-66
2021/12/21 01:51:17;;;;;;;;;2.25;2.25;;;;;17.41;57.15;102849.31;5065128;28;9217;-66
2021/12/21 01:53:47;;;;;;;;;5.00;4.50;;;;;17.40;56.93;102852.81;5071043;28;9475;-66
2021/12/21 01:56:13;;;;;;;;;4.75;4.75;;;;;17.41;57.00;102849.31;5071463;28;9410;-66
2021/12/21 01:58:40;;;;;;;;;5.00;5.00;;;;;17.36;57.12;102837.75;5070647;28;9421;-66
2021/12/21 02:01:11;;;;;;;;;4.25;4.25;;;;;17.38;56.86;102846.63;5071116;28;9426;-66
2021/12/21 02:03:37;;;;;;;;;5.00;4.00;;;;;17.39;57.26;102851.94;5071623;28;9421;-65
2021/12/21 02:06:03;;;;;;;;;5.00;4.00;;;;;17.35;56.99;102843.91;5070418;28;9312;-65
2021/12/21 02:08:29;;;;;;;;;5.00;4.00;;;;;17.39;57.18;102849.31;5071112;28;9587;-64
2021/12/21 02:11:03;;;;;;;;;6.00;5.00;;;;;17.40;57.04;102850.19;5071085;28;9316;-64
2021/12/21 02:13:32;;;;;;;;;4.00;4.00;;;;;17.38;57.25;102854.53;5070612;28;8801;-65
2021/12/21 02:15:58;;;;;;;;;6.00;6.00;;;;;17.34;57.07;102842.09;5071309;28;9165;-64
2021/12/21 02:21:21;;;;;;;;;2.67;2.67;;;;;17.38;56.99;102842.22;5070255;28;9348;-64
2021/12/21 02:23:48;;;;;;;;;4.00;3.75;;;;;17.37;56.83;102840.44;5070631;28;9127;-64
2021/12/21 02:29:10;;;;;;;;;2.00;2.00;;;;;17.37;57.02;102837.78;5070517;28;10145;-65
2021/12/21 02:31:38;;;;;;;;;4.00;3.00;;;;;17.36;56.71;102836.00;5070902;28;9265;-65
2021/12/21 02:34:04;;;;;;;;;4.33;4.33;;;;;17.36;57.05;102836.00;5070104;28;9165;-65
2021/12/21 02:36:29;;;;;;;;;5.00;5.00;;;;;17.37;57.10;102844.81;5070641;28;9359;-65
2021/12/21 02:38:55;;;;;;;;;4.67;4.67;;;;;17.25;56.78;102819.00;5070610;28;9505;-65
2021/12/21 02:41:21;;;;;;;;;5.67;4.67;;;;;17.37;56.86;102844.81;5070569;28;8814;-65
2021/12/21 02:43:46;;;;;;;;;4.00;4.00;;;;;17.35;56.78;102833.34;5070613;28;9711;-65
2021/12/21 02:46:17;;;;;;;;;5.00;4.00;;;;;17.36;56.69;102840.38;5076065;28;9814;-65
2021/12/21 02:48:45;;;;;;;;;4.33;4.00;;;;;17.35;56.94;102841.25;5076315;28;8873;-65
2021/12/21 02:51:10;;;;;;;;;3.67;3.67;;;;;17.30;56.91;102832.31;5077398;28;9547;-65
2021/12/21 02:53:36;;;;;;;;;5.00;5.00;;;;;17.36;56.80;102843.03;5077671;28;9908;-65
2021/12/21 02:56:01;;;;;;;;;4.00;4.00;;;;;17.34;57.06;102842.09;5076565;28;8814;-64
2021/12/21 02:58:26;;;;;;;;;3.67;3.67;;;;;17.34;56.70;102845.66;5077519;28;9567;-64
2021/12/21 03:00:53;;;;;;;;;3.67;3.67;;;;;17.28;56.91;102834.91;5076972;28;8952;-65
2021/12/21 03:03:19;;;;;;;;;4.00;4.00;;;;;17.32;56.87;102844.69;5076532;28;8851;-64
2021/12/21 03:05:49;;;;;;;;;5.00;4.00;;;;;17.21;56.66;102819.75;5077156;28;10174;-64
2021/12/21 03:08:20;;;;;;;;;4.00;3.33;;;;;17.34;56.81;102844.75;5076931;28;8770;-64
2021/12/21 03:11:14;;;;;;;;;5.00;5.00;;;;;17.35;56.68;102847.44;5076919;28;10075;-65
2021/12/21 03:13:55;;;;;;;;;3.75;3.00;;;;;17.32;56.94;102841.19;5076733;28;9459;-65
2021/12/21 03:16:21;;;;;;;;;4.33;4.33;;;;;17.33;56.79;102845.59;5076970;28;9509;-65
2021/12/21 03:18:46;;;;;;;;;4.33;4.33;;;;;17.30;56.72;102841.13;5077011;28;9510;-65
2021/12/21 03:21:15;;;;;;;;;4.50;4.50;;;;;17.32;56.79;102841.19;5077167;28;11435;-65
2021/12/21 03:23:40;;;;;;;;;4.00;4.00;;;;;17.30;56.76;102838.50;5076667;28;8761;-65
2021/12/21 03:26:06;;;;;;;;;4.50;3.50;;;;;17.28;56.65;102836.69;5077180;28;9395;-65
2021/12/21 03:28:32;;;;;;;;;3.00;3.00;;;;;17.31;56.86;102836.75;5077477;28;9568;-65
2021/12/21 03:30:57;;;;;;;;;3.00;3.00;;;;;17.30;56.75;102842.88;5076331;28;8767;-65
2021/12/21 03:33:23;;;;;;;;;5.00;4.00;;;;;17.30;56.61;102834.97;5076951;28;8789;-65
2021/12/21 03:35:48;;;;;;;;;6.00;6.00;;;;;17.28;56.34;102828.75;5076655;28;8798;-65
2021/12/21 03:38:15;;;;;;;;;4.00;3.25;;;;;17.29;56.73;102830.53;5076472;28;8789;-65
2021/12/21 03:40:40;;;;;;;;;3.75;3.75;;;;;17.30;56.45;102827.03;5076716;28;8805;-65
2021/12/21 03:43:05;;;;;;;;;4.00;4.00;;;;;17.30;56.46;102833.22;5076927;28;9547;-65
2021/12/21 03:45:34;;;;;;;;;5.00;5.00;;;;;17.31;56.16;102829.72;5076298;28;8786;-65
2021/12/21 03:48:00;;;;;;;;;4.75;4.75;;;;;17.25;56.44;102826.91;5076985;28;8782;-65
2021/12/21 03:50:27;;;;;;;;;5.00;4.50;;;;;17.26;56.40;102827.81;5076136;28;9409;-65
2021/12/21 03:52:52;;;;;;;;;4.00;4.00;;;;;17.27;56.62;102819.94;5076600;28;8954;-66
2021/12/21 03:55:18;;;;;;;;;5.00;4.00;;;;;17.30;56.43;102827.03;5077049;28;9449;-64
2021/12/21 03:57:43;;;;;;;;;4.00;3.75;;;;;17.26;56.15;102818.16;5072347;28;8814;-64
2021/12/21 04:00:12;;;;;;;;;5.00;5.00;;;;;17.27;56.50;102821.69;5073534;28;8806;-65
2021/12/21 04:02:37;;;;;;;;;2.00;2.00;;;;;17.16;56.01;102792.38;5073375;28;8817;-65
2021/12/21 04:05:03;;;;;;;;;5.00;4.00;;;;;17.25;56.15;102812.81;5072953;28;9467;-64
2021/12/21 04:07:32;;;;;;;;;3.00;3.00;;;;;17.23;56.39;102810.16;5073599;28;8778;-64
2021/12/21 04:09:57;;;;;;;;;3.50;3.00;;;;;17.23;56.40;102812.81;5073495;28;9394;-65
2021/12/21 04:12:23;;;;;;;;;4.00;4.00;;;;;17.25;56.51;102812.81;5072581;28;9498;-65
2021/12/21 04:14:48;;;;;;;;;3.50;3.50;;;;;17.24;56.06;102811.94;5072151;28;8842;-65
2021/12/21 04:17:21;;;;;;;;;3.00;3.00;;;;;17.25;56.56;102807.53;5073563;28;8774;-65
2021/12/21 04:19:47;;;;;;;;;6.00;5.00;;;;;17.23;56.21;102806.63;5072383;28;8882;-65
2021/12/21 04:22:16;;;;;;;;;6.75;4.25;;;;;17.24;56.39;102805.78;5073164;28;10277;-65
2021/12/21 04:24:41;;;;;;;;;4.00;3.75;;;;;17.20;56.04;102796.88;5073096;28;8828;-65
2021/12/21 04:27:07;;;;;;;;;4.00;4.00;;;;;17.21;56.15;102801.28;5072729;28;9475;-65
2021/12/21 04:29:32;;;;;;;;;3.00;3.00;;;;;17.19;56.17;102788.91;5073395;28;8766;-65
2021/12/21 04:31:57;;;;;;;;;4.00;4.00;;;;;17.21;56.34;102793.38;5073002;28;9490;-65
2021/12/21 04:34:22;;;;;;;;;2.50;2.50;;;;;17.13;56.31;102781.75;5072292;28;9579;-64
2021/12/21 04:36:48;;;;;;;;;5.00;5.00;;;;;17.19;56.06;102792.44;5073048;28;8839;-65
2021/12/21 04:41:54;;;;;;;;;3.75;3.75;;;;;17.22;56.24;102796.91;5071923;28;8833;-64
2021/12/21 04:44:19;;;;;;;;;4.25;3.50;;;;;17.20;55.78;102802.16;5072943;28;9409;-65
2021/12/21 04:46:44;;;;;;;;;3.50;3.00;;;;;17.17;56.06;102796.78;5071640;28;8829;-65
2021/12/21 04:49:10;;;;;;;;;4.75;3.75;;;;;17.17;55.52;102794.13;5073136;28;8767;-67
2021/12/21 04:51:35;;;;;;;;;5.25;5.25;;;;;17.18;55.79;102798.56;5072610;28;8888;-65
2021/12/21 04:54:01;;;;;;;;;2.50;2.50;;;;;17.17;56.04;102790.63;5071855;28;8792;-65
2021/12/21 04:56:26;;;;;;;;;4.00;4.00;;;;;17.19;55.72;102796.84;5072702;28;8818;-65
2021/12/21 04:58:51;;;;;;;;;4.50;3.50;;;;;17.19;55.71;102808.28;5072223;28;8802;-65
2021/12/21 05:01:16;;;;;;;;;2.67;2.67;;;;;17.18;55.93;102795.94;5071885;28;8837;-65
2021/12/21 05:03:42;;;;;;;;;4.50;3.75;;;;;17.20;55.66;102796.88;5072169;28;8782;-66
2021/12/21 05:06:07;;;;;;;;;4.50;4.50;;;;;17.19;56.22;102802.13;5072677;28;8782;-66
2021/12/21 05:08:38;;;;;;;;;4.75;4.75;;;;;17.17;55.28;102793.28;5071612;28;8778;-65
2021/12/21 05:11:05;;;;;;;;;4.75;4.75;;;;;17.19;55.89;102788.91;5072160;28;8778;-66
2021/12/21 05:13:34;;;;;;;;;5.00;5.00;;;;;17.19;55.97;102797.72;5072322;28;9447;-64
2021/12/21 05:16:00;;;;;;;;;4.25;4.25;;;;;17.20;55.52;102802.16;5071356;28;9332;-65
2021/12/21 05:18:27;;;;;;;;;5.00;4.00;;;;;17.16;56.03;102787.09;5072235;28;9414;-65
2021/12/21 05:20:53;;;;;;;;;3.00;3.00;;;;;17.16;55.72;102783.56;5071744;28;8770;-65
2021/12/21 05:23:22;;;;;;;;;4.00;4.00;;;;;17.17;55.77;102794.13;5070644;28;9525;-65
2021/12/21 05:25:47;;;;;;;;;3.50;3.50;;;;;17.18;55.84;102790.66;5071571;28;9609;-65
2021/12/21 05:28:14;;;;;;;;;3.00;3.00;;;;;17.19;55.94;102788.91;5070961;28;9338;-65
2021/12/21 05:30:41;;;;;;;;;3.75;3.75;;;;;17.17;55.74;102788.88;5070923;28;8769;-65
2021/12/21 05:33:06;;;;;;;;;6.00;6.00;;;;;17.12;55.84;102787.88;5071516;28;9535;-65
2021/12/21 05:35:33;;;;;;;;;3.00;3.00;;;;;17.12;55.99;102785.22;5071539;28;9604;-66
2021/12/21 05:38:05;;;;;;;;;4.00;4.00;;;;;17.14;55.57;102791.44;5071087;28;9237;-65
2021/12/21 05:40:37;;;;;;;;;5.00;4.00;;;;;17.11;55.85;102778.16;5072004;28;9324;-66
2021/12/21 05:43:06;;;;;;;;;4.50;3.00;;;;;17.14;55.65;102786.16;5070839;28;9405;-65
2021/12/21 05:45:32;;;;;;;;;3.75;3.75;;;;;17.11;55.71;102779.91;5071787;28;9406;-65
2021/12/21 05:47:58;;;;;;;;;6.00;4.75;;;;;17.14;55.65;102787.91;5071200;28;9651;-65
2021/12/21 05:50:24;;;;;;;;;3.50;3.25;;;;;17.15;55.61;102789.69;5070978;28;8891;-65
2021/12/21 05:52:49;;;;;;;;;3.50;3.50;;;;;17.11;55.50;102788.72;5071049;28;8782;-65
2021/12/21 05:55:17;;;;;;;;;4.25;2.50;;;;;17.11;55.71;102794.00;5071507;28;11431;-65
2021/12/21 05:57:42;;;;;;;;;2.75;2.75;;;;;17.12;55.60;102795.78;5070450;28;8801;-65
2021/12/21 06:00:11;;;;;;;;;3.00;3.00;;;;;17.13;55.34;102797.59;5071329;28;9638;-65
2021/12/21 06:02:37;;;;;;;;;4.00;4.00;;;;;17.01;55.49;102770.88;5071245;28;8975;-65
2021/12/21 06:05:05;;;;;;;;;4.25;4.25;;;;;17.10;55.71;102786.94;5070511;28;9385;-65
2021/12/21 06:07:34;;;;;;;;;4.75;4.00;;;;;17.09;55.70;102793.09;5071398;28;8804;-65
2021/12/21 06:10:10;;;;;;;;;4.50;3.75;;;;;17.05;55.79;102793.84;5071105;28;9553;-65
2021/12/21 06:23:42;;;;;;;;;3.00;3.00;;;;;17.03;55.50;102799.91;5071444;28;9409;-65
2021/12/21 06:26:08;;;;;;;;;4.75;4.00;;;;;17.10;55.28;102799.22;5070070;28;9382;-64
2021/12/21 06:28:33;;;;;;;;;3.25;3.25;;;;;17.02;55.22;102784.97;5071424;28;9389;-65
2021/12/21 06:30:59;;;;;;;;;3.00;3.00;;;;;17.08;55.54;102790.38;5070913;28;9515;-65
2021/12/21 06:33:24;;;;;;;;;5.25;3.75;;;;;17.10;55.39;102796.59;5070578;28;8778;-65
2021/12/21 06:35:55;;;;;;;;;3.50;3.50;;;;;17.08;55.51;102790.38;5070971;28;8825;-64
2021/12/21 06:38:21;;;;;;;;;4.00;4.00;;;;;17.10;55.35;102788.66;5071103;28;8770;-65
2021/12/21 06:40:47;;;;;;;;;3.00;3.00;;;;;17.06;55.35;102795.63;5069995;28;9655;-65
2021/12/21 06:43:14;;;;;;;;;5.00;4.00;;;;;17.00;55.17;102782.28;5071139;28;8812;-65
2021/12/21 06:45:53;;;;;;;;;4.00;4.00;;;;;17.06;55.40;102795.63;5070688;28;9471;-65
2021/12/21 06:51:20;;;;;;;;;3.25;3.25;;;;;16.97;55.18;102786.56;5070596;28;9446;-65
2021/12/21 06:53:49;;;;;;;;;3.00;3.00;;;;;17.04;55.25;102794.69;5069696;28;9664;-65
2021/12/21 06:56:16;;;;;;;;;4.75;4.75;;;;;17.05;55.27;102792.97;5070744;28;9537;-65
2021/12/21 06:58:41;;;;;;;;;4.00;3.25;;;;;17.05;55.09;102793.84;5070778;28;10058;-65
2021/12/21 07:01:07;;;;;;;;;4.00;4.00;;;;;17.03;55.64;102792.00;5070020;28;9433;-65
2021/12/21 07:03:32;;;;;;;;;5.00;3.75;;;;;17.04;55.39;102788.53;5070917;28;8774;-65
2021/12/21 07:06:02;;;;;;;;;4.50;3.75;;;;;17.08;55.91;102793.94;5070419;28;8770;-64
2021/12/21 07:08:31;;;;;;;;;8.00;7.00;;;;;17.10;56.70;102786.94;5070333;28;8782;-65
2021/12/21 07:11:44;;;;;;;;;7.50;5.50;;;;;17.17;57.06;102791.50;5070453;28;9456;-65
2021/12/21 07:19:34;;;;;;;;;11.25;8.50;;;;;17.25;59.84;102786.41;5057936;28;9534;-64
2021/12/21 07:22:02;;;;;;;;;10.50;8.75;;;;;17.30;60.18;102790.06;5069508;28;9718;-65
2021/12/21 07:24:31;;;;;;;;;11.25;9.75;;;;;17.32;60.89;102798.94;5070344;28;8784;-64
2021/12/21 07:26:56;;;;;;;;;8.00;7.50;;;;;17.30;61.07;102792.72;5070016;28;9691;-64
2021/12/21 07:29:21;;;;;;;;;11.00;9.25;;;;;17.33;62.11;102804.25;5069675;28;9646;-64
2021/12/21 07:31:47;;;;;;;;;8.50;8.50;;;;;17.29;61.98;102797.09;5069609;28;8806;-64
2021/12/21 07:34:13;;;;;;;;;10.25;8.25;;;;;17.27;62.32;102797.94;5072994;28;8854;-62
2021/12/21 07:36:42;;;;;;;;;9.75;7.50;;;;;17.30;62.64;102803.28;5071718;28;8926;-63
2021/12/21 07:39:10;;;;;;;;;7.00;5.75;;;;;17.26;62.37;102804.06;5072713;28;8822;-63
2021/12/21 07:41:35;;;;;;;;;8.00;7.50;;;;;17.26;62.14;102811.97;5073670;28;9680;-62
2021/12/21 07:44:01;;;;;;;;;8.75;8.00;;;;;17.23;62.48;102812.81;5073183;28;9776;-63
2021/12/21 07:46:26;;;;;;;;;8.25;5.75;;;;;17.21;62.31;102810.94;5072256;28;8801;-63
2021/12/21 07:48:57;;;;;;;;;8.00;6.50;;;;;17.23;62.25;102818.06;5080862;28;8830;-63
2021/12/21 07:51:23;;;;;;;;;11.00;8.75;;;;;17.18;62.26;102808.25;5092781;28;8783;-63
2021/12/21 07:53:49;;;;;;;;;9.00;9.00;;;;;17.20;61.92;102810.09;5093080;28;9711;-63
2021/12/21 07:56:16;;;;;;;;;8.25;6.75;;;;;17.16;61.92;102802.03;5082259;28;8801;-63
2021/12/21 07:58:42;;;;;;;;;7.25;6.00;;;;;17.19;62.16;102807.41;5072703;28;8770;-63
2021/12/21 08:01:08;;;;;;;;;9.00;8.00;;;;;17.21;62.01;102810.94;5071763;28;9588;-62
2021/12/21 08:03:34;;;;;;;;;8.50;7.00;;;;;17.19;61.82;102816.22;5073079;28;9559;-62
2021/12/21 08:06:01;;;;;;;;;6.50;5.75;;;;;17.19;61.75;102817.94;5080953;28;8794;-63
2021/12/21 08:08:30;;;;;;;;;6.50;6.00;;;;;17.14;61.38;102811.66;5073363;28;9544;-63
2021/12/21 08:13:47;;;;;;;;;6.50;6.00;;;;;17.13;60.95;102816.06;5072751;28;9514;-63
2021/12/21 08:16:12;;;;;;;;;8.00;7.00;;;;;17.15;60.48;102818.72;5072069;28;9589;-62
2021/12/21 08:18:38;;;;;;;;;7.50;7.50;;;;;17.13;60.27;102826.63;5058099;28;10428;-63
2021/12/21 08:21:04;;;;;;;;;7.00;6.75;;;;;17.11;60.16;102824.78;5051141;28;8927;-63
2021/12/21 08:23:29;;;;;;;;;9.00;7.75;;;;;17.04;60.06;102822.81;5053207;28;8788;-63
2021/12/21 08:25:56;;;;;;;;;10.75;7.50;;;;;17.15;59.96;102843.38;5051418;28;9570;-64
2021/12/21 08:28:22;;;;;;;;;7.00;6.00;;;;;17.13;59.37;102847.75;5052764;28;8879;-63
2021/12/21 08:30:48;;;;;;;;;4.50;3.00;;;;;17.15;59.37;102853.94;5049946;28;10381;-63
2021/12/21 08:33:16;;;;;;;;;5.75;5.75;;;;;17.10;59.16;102839.72;5051952;28;9692;-62
2021/12/21 08:35:46;;;;;;;;;7.75;4.75;;;;;17.00;58.99;102828.88;5063561;28;8842;-62
2021/12/21 08:38:15;;;;;;;;;7.50;6.00;;;;;17.12;58.59;102853.84;5071861;28;9465;-62
2021/12/21 08:40:43;;;;;;;;;5.50;5.50;;;;;17.12;58.74;102850.31;5070105;28;9630;-62
2021/12/21 08:43:11;;;;;;;;;6.25;6.25;;;;;17.13;58.64;102854.75;5052059;28;9581;-62
2021/12/21 08:45:38;;;;;;;;;5.75;5.75;;;;;17.13;58.50;102853.00;5052271;28;9545;-63
2021/12/21 08:48:05;;;;;;;;;6.00;4.75;;;;;17.11;57.98;102851.16;5083065;28;9482;-63
2021/12/21 08:50:31;;;;;;;;;6.00;6.00;;;;;17.06;58.01;102837.84;5092883;28;9647;-63
2021/12/21 08:52:57;;;;;;;;;6.25;5.25;;;;;17.11;58.15;102837.97;5069829;28;9647;-62
2021/12/21 08:55:23;;;;;;;;;8.50;7.00;;;;;17.12;58.11;102834.47;5072053;28;9534;-63
2021/12/21 08:57:48;;;;;;;;;4.50;4.50;;;;;17.13;57.82;102831.91;5071539;28;11426;-63
2021/12/21 09:00:14;;;;;;;;;6.25;4.50;;;;;17.10;57.91;102831.78;5070959;28;9576;-64
2021/12/21 09:02:39;;;;;;;;;5.75;5.75;;;;;17.14;57.47;102835.41;5070425;28;8925;-63
2021/12/21 09:05:11;;;;;;;;;5.50;5.50;;;;;17.10;57.45;102839.72;5072128;28;8776;-63
2021/12/21 09:07:39;;;;;;;;;5.25;5.25;;;;;17.12;57.61;102838.03;5071113;28;8786;-63
2021/12/21 09:10:06;;;;;;;;;5.00;5.00;;;;;17.12;57.50;102839.75;5071816;28;9642;-62
2021/12/21 09:12:31;;;;;;;;;5.25;4.75;;;;;17.14;57.22;102846.84;5070447;28;9658;-62
2021/12/21 09:14:57;;;;;;;;;4.00;4.00;;;;;16.94;57.23;102828.72;5070710;28;9556;-63
2021/12/21 09:17:22;;;;;;;;;5.50;4.25;;;;;17.11;57.45;102844.16;5071838;28;8806;-63
2021/12/21 09:19:47;;;;;;;;;8.50;6.75;;;;;17.14;57.13;102838.03;5071880;28;8782;-63
2021/12/21 09:22:13;;;;;;;;;6.00;6.00;;;;;17.12;57.07;102835.38;5069398;28;8837;-63
2021/12/21 09:24:38;;;;;;;;;7.25;5.00;;;;;17.13;57.32;102839.81;5071954;28;8893;-63
2021/12/21 09:27:03;;;;;;;;;6.25;6.00;;;;;17.12;57.30;102823.94;5070959;28;8786;-63
2021/12/21 09:29:29;;;;;;;;;6.00;5.00;;;;;17.14;57.33;102824.84;5070949;28;8859;-63
2021/12/21 09:31:54;;;;;;;;;4.00;3.75;;;;;17.11;56.92;102823.03;5069874;28;8859;-63
2021/12/21 09:34:19;;;;;;;;;1.00;1.00;;;;;17.07;56.94;102818.53;5070736;28;8774;-62
2021/12/21 09:36:45;;;;;;;;;4.00;4.00;;;;;17.10;57.09;102810.69;5069984;28;8802;-63
2021/12/21 09:39:10;;;;;;;;;3.25;3.25;;;;;17.10;56.84;102815.97;5071698;28;8778;-63
2021/12/21 09:41:35;;;;;;;;;5.00;5.00;;;;;17.07;56.77;102814.97;5069951;28;9007;-63
2021/12/21 09:44:01;;;;;;;;;5.00;5.00;;;;;17.08;56.92;102816.78;5070437;28;8932;-63
2021/12/21 09:46:27;;;;;;;;;4.00;4.00;;;;;17.13;57.03;102828.38;5058867;28;8804;-63
2021/12/21 09:48:52;;;;;;;;;5.25;4.75;;;;;17.13;56.52;102831.00;5050729;28;10262;-63
2021/12/21 09:51:17;;;;;;;;;4.00;4.00;;;;;17.13;56.62;102831.00;5049406;28;8866;-64
2021/12/21 09:53:43;;;;;;;;;4.00;3.00;;;;;17.13;56.83;102834.53;5050516;28;8781;-62
2021/12/21 09:56:08;;;;;;;;;4.00;4.00;;;;;17.15;56.80;102832.81;5049651;28;8803;-62
2021/12/21 09:58:34;;;;;;;;;3.50;3.50;;;;;17.13;56.33;102846.84;5051131;28;8769;-64
2021/12/21 10:00:59;;;;;;;;;5.75;5.00;;;;;17.10;56.77;102845.00;5052728;28;8837;-62
2021/12/21 10:03:25;;;;;;;;;4.75;4.00;;;;;17.13;56.38;102850.38;5070165;28;9638;-63
2021/12/21 10:06:04;;;;;;;;;3.00;3.00;;;;;17.13;56.34;102838.91;5070662;28;8868;-62
2021/12/21 10:08:31;;;;;;;;;6.25;4.75;;;;;17.11;56.34;102840.59;5071164;28;8877;-62
2021/12/21 10:10:56;;;;;;;;;5.00;5.00;;;;;17.11;56.24;102835.34;5066171;28;9566;-63
2021/12/21 10:13:27;;;;;;;;;4.00;4.00;;;;;17.14;56.45;102841.56;5050838;28;9558;-63
2021/12/21 10:15:56;;;;;;;;;3.00;3.00;;;;;17.13;56.44;102839.81;5050511;28;8804;-63
2021/12/21 10:18:24;;;;;;;;;3.75;3.75;;;;;17.15;56.38;102839.84;5049281;28;9508;-64
2021/12/21 10:20:50;;;;;;;;;3.50;3.25;;;;;17.13;56.33;102831.91;5049876;28;9537;-64
2021/12/21 10:23:18;;;;;;;;;5.75;3.75;;;;;17.14;56.21;102832.75;5050699;28;9507;-64
2021/12/21 10:25:49;;;;;;;;;2.50;2.50;;;;;17.14;56.30;102824.84;5049965;28;8768;-63
2021/12/21 10:28:34;;;;;;;;;4.00;4.00;;;;;17.16;56.30;102824.06;5050366;28;9336;-62
2021/12/21 10:31:07;;;;;;;;;3.00;3.00;;;;;17.15;56.16;102814.34;5040348;28;9429;-63
2021/12/21 10:33:33;;;;;;;;;4.00;3.50;;;;;17.15;56.38;102792.31;5050025;28;9313;-63
2021/12/21 10:36:01;;;;;;;;;4.00;4.00;;;;;17.16;56.39;102800.31;5064221;28;10131;-63
2021/12/21 10:38:34;;;;;;;;;6.50;5.00;;;;;17.19;56.26;102796.84;5066996;28;9420;-64
2021/12/21 10:41:12;;;;;;;;;4.25;4.25;;;;;17.15;56.48;102793.22;5049395;28;9573;-63
2021/12/21 10:43:38;;;;;;;;;4.50;3.75;;;;;17.18;56.47;102803.84;5050698;28;9402;-63
2021/12/21 10:46:04;;;;;;;;;5.25;5.00;;;;;17.18;56.28;102789.75;5073757;28;9551;-64
2021/12/21 10:48:30;;;;;;;;;4.00;3.00;;;;;17.17;56.36;102788.88;5070674;28;8889;-63
2021/12/21 10:50:56;;;;;;;;;3.75;3.50;;;;;17.16;56.46;102780.94;5068951;28;8829;-64
2021/12/21 10:53:26;;;;;;;;;5.00;5.00;;;;;17.19;56.47;102781.00;5069600;28;10210;-64
2021/12/21 10:56:05;;;;;;;;;4.75;4.75;;;;;17.19;56.19;102783.63;5066343;28;8807;-64
2021/12/21 10:58:31;;;;;;;;;3.75;3.75;;;;;17.14;56.49;102783.50;5066644;28;9485;-64
2021/12/21 11:01:04;;;;;;;;;5.00;4.50;;;;;17.19;56.25;102792.44;5066855;28;9370;-63
2021/12/21 11:03:45;;;;;;;;;4.00;4.00;;;;;17.14;56.45;102783.50;5070600;28;8791;-64
2021/12/21 11:06:47;;;;;;;;;5.00;4.00;;;;;17.19;56.39;102787.19;5071374;28;9456;-62
2021/12/21 11:09:14;;;;;;;;;4.50;4.50;;;;;17.19;56.34;102783.63;5074303;28;9525;-62
2021/12/21 11:11:47;;;;;;;;;0.00;0.00;;;;;17.17;56.27;102780.94;5064456;28;9332;-63
2021/12/21 11:14:17;;;;;;;;;3.00;3.00;;;;;17.16;56.49;102779.19;5072986;28;9261;-63
2021/12/21 11:16:51;;;;;;;;;4.50;4.50;;;;;17.18;56.41;102776.56;5069067;28;9493;-63
2021/12/21 11:19:20;;;;;;;;;3.00;3.00;;;;;17.20;56.27;102778.41;5053967;28;10215;-64
2021/12/21 11:21:46;;;;;;;;;4.00;4.00;;;;;17.21;56.09;102787.19;5082106;28;9518;-64
2021/12/21 11:24:17;;;;;;;;;4.50;4.50;;;;;17.07;56.11;102749.00;5074328;28;9628;-64
2021/12/21 11:26:47;;;;;;;;;4.00;3.25;;;;;17.21;56.11;102777.53;5073439;28;9415;-64
2021/12/21 11:29:16;;;;;;;;;3.50;3.50;;;;;17.20;56.31;102772.22;5072947;28;9461;-64
2021/12/21 11:31:47;;;;;;;;;5.75;5.75;;;;;17.19;56.61;102775.72;5064498;28;9515;-64
2021/12/21 11:34:17;;;;;;;;;5.00;5.00;;;;;17.20;56.20;102777.50;5074082;28;9546;-63
2021/12/21 11:39:33;;;;;;;;;4.75;3.75;;;;;17.18;56.11;102764.25;5073878;28;9500;-63
2021/12/21 11:42:05;;;;;;;;;5.00;5.00;;;;;17.08;56.22;102735.88;5070422;28;9663;-64
2021/12/21 11:45:01;;;;;;;;;4.25;4.25;;;;;17.18;56.30;102753.72;5073706;28;8827;-63
2021/12/21 11:47:44;;;;;;;;;3.75;3.75;;;;;17.21;56.15;102739.69;5063832;28;9481;-63
2021/12/21 11:50:10;;;;;;;;;5.00;3.75;;;;;17.19;56.08;102744.03;5053319;28;9410;-64
2021/12/21 11:53:06;;;;;;;;;4.00;4.00;;;;;17.21;56.06;102742.31;5067988;28;9418;-64
2021/12/21 11:55:34;;;;;;;;;3.00;3.00;;;;;17.19;56.08;102747.59;5071866;28;11522;-64
2021/12/21 11:58:14;;;;;;;;;4.00;4.00;;;;;17.18;56.01;102742.25;5061275;28;9486;-63
2021/12/21 12:00:47;;;;;;;;;4.00;4.00;;;;;17.17;55.69;102735.22;5052184;28;9327;-63
2021/12/21 12:03:18;;;;;;;;;4.00;4.00;;;;;17.19;56.03;102741.41;5072693;28;9496;-62
2021/12/21 12:06:04;;;;;;;;;3.75;3.75;;;;;17.19;56.06;102736.13;5073112;28;9563;-64
2021/12/21 12:08:52;;;;;;;;;3.25;3.25;;;;;17.19;55.76;102729.09;5090361;28;9458;-65
2021/12/21 12:11:35;;;;;;;;;3.25;3.25;;;;;17.18;55.99;102735.22;5059136;28;9503;-64
2021/12/21 12:14:03;;;;;;;;;4.00;4.00;;;;;17.20;55.68;102733.53;5051825;28;9477;-63
2021/12/21 12:16:39;;;;;;;;;5.75;5.00;;;;;17.22;55.98;102737.09;5053612;28;9483;-63
2021/12/21 12:19:30;;;;;;;;;4.25;4.25;;;;;17.19;56.07;102715.91;5051412;28;10253;-63
2021/12/21 12:22:06;;;;;;;;;4.50;4.50;;;;;17.17;55.91;102717.59;5054462;28;9411;-64
2021/12/21 12:24:57;;;;;;;;;6.50;5.50;;;;;17.21;55.46;102715.91;5072466;28;10291;-66
2021/12/21 12:27:28;;;;;;;;;4.25;4.25;;;;;17.21;55.53;102716.81;5069219;28;9497;-64
2021/12/21 12:29:56;;;;;;;;;6.75;4.50;;;;;17.22;55.38;102726.53;5072873;28;9415;-64
2021/12/21 12:32:35;;;;;;;;;5.50;5.50;;;;;17.21;54.85;102716.81;5055923;28;9454;-64
2021/12/21 12:35:07;;;;;;;;;4.50;4.25;;;;;17.22;55.07;102712.44;5058310;28;9594;-63
2021/12/21 12:37:33;;;;;;;;;5.50;5.50;;;;;17.22;54.89;102712.44;5072602;28;9454;-63